Time;durP1;ratioP1;P1;durP2;ratioP2;P2;SDS_P1;SDS_P2;PMS_P1;PMS_P2;Temp;Humidity;BMP_temperature;BMP_pressure;BME280_temperature;BME280_humidity;BME280_pressure;Samples;Min_cycle;Max_cycle;Signal;HPM_P1;HPM_P2
2023/07/04 04:08:02;;;;;;;1.07;0.97;;;18.20;99.90;;;;;;4976600;28;20849;-63
2023/07/04 04:10:28;;;;;;;1.53;1.03;;;18.30;99.90;;;;;;4978152;28;20886;-63
2023/07/04 04:12:53;;;;;;;1.50;1.40;;;18.30;99.90;;;;;;4977948;28;20192;-64
2023/07/04 04:15:19;;;;;;;1.23;1.13;;;18.30;99.90;;;;;;4977741;28;20542;-65
2023/07/04 04:17:44;;;;;;;2.00;1.30;;;18.30;99.90;;;;;;4978047;28;20270;-64
2023/07/04 04:20:10;;;;;;;0.90;0.90;;;18.40;99.90;;;;;;4978044;28;20630;-65
2023/07/04 04:22:39;;;;;;;1.20;1.10;;;18.40;99.90;;;;;;4977975;28;20226;-64
2023/07/04 04:25:05;;;;;;;1.17;0.90;;;18.40;99.90;;;;;;4977368;28;20427;-65
2023/07/04 04:27:31;;;;;;;2.07;1.10;;;18.40;99.90;;;;;;4977617;28;20406;-64
2023/07/04 04:29:57;;;;;;;0.90;0.90;;;18.50;99.90;;;;;;4977846;28;20427;-64
2023/07/04 04:32:22;;;;;;;0.90;0.90;;;18.50;99.90;;;;;;4977839;28;20185;-64
2023/07/04 04:34:48;;;;;;;1.27;1.07;;;18.50;99.90;;;;;;4976387;28;20427;-64
2023/07/04 04:37:14;;;;;;;0.80;0.80;;;18.60;99.90;;;;;;4977600;28;20169;-64
2023/07/04 04:39:39;;;;;;;1.60;1.50;;;18.70;99.90;;;;;;4977440;28;21005;-64
2023/07/04 04:42:06;;;;;;;1.70;1.40;;;18.70;99.90;;;;;;4977341;28;20173;-64
2023/07/04 04:44:32;;;;;;;0.80;0.70;;;18.70;99.90;;;;;;4977223;28;20550;-64
2023/07/04 04:46:58;;;;;;;1.10;1.00;;;18.80;99.90;;;;;;4977359;28;20416;-64
2023/07/04 04:49:23;;;;;;;1.20;1.10;;;18.90;99.90;;;;;;4977489;28;20207;-65
2023/07/04 04:51:51;;;;;;;1.23;1.00;;;19.00;99.90;;;;;;4977478;28;20423;-64
2023/07/04 04:54:17;;;;;;;1.53;0.80;;;19.10;99.90;;;;;;4976944;28;20212;-64
2023/07/04 04:56:44;;;;;;;1.00;1.00;;;19.30;99.90;;;;;;4977006;28;20446;-64
2023/07/04 04:59:11;;;;;;;0.80;0.80;;;19.40;99.90;;;;;;4977291;28;20467;-65
2023/07/04 05:01:37;;;;;;;0.90;0.77;;;19.50;99.90;;;;;;4976875;28;20499;-63
2023/07/04 05:04:03;;;;;;;0.90;0.90;;;19.60;99.90;;;;;;4966052;28;20483;-64
2023/07/04 05:06:30;;;;;;;1.00;0.90;;;19.80;99.90;;;;;;4957745;29;20428;-64
2023/07/04 05:08:56;;;;;;;1.27;1.00;;;19.90;99.90;;;;;;4957467;28;20431;-65
2023/07/04 05:11:22;;;;;;;2.10;1.10;;;20.00;99.90;;;;;;4956824;29;20420;-64
2023/07/04 05:13:49;;;;;;;3.33;1.47;;;20.20;99.90;;;;;;4957228;29;20224;-62
2023/07/04 05:16:17;;;;;;;0.83;0.83;;;20.30;99.90;;;;;;4957615;29;20830;-63
2023/07/04 05:18:44;;;;;;;1.03;1.03;;;20.50;99.90;;;;;;4957361;29;20842;-62
2023/07/04 05:21:16;;;;;;;1.40;1.30;;;20.70;99.90;;;;;;4957442;29;20771;-62
2023/07/04 05:23:45;;;;;;;1.60;1.33;;;20.80;99.90;;;;;;4957333;29;20464;-62
2023/07/04 05:26:17;;;;;;;0.87;0.83;;;20.90;99.90;;;;;;4957372;29;20449;-61
2023/07/04 05:28:43;;;;;;;0.63;0.63;;;21.00;99.90;;;;;;4957524;29;20788;-61
2023/07/04 05:31:14;;;;;;;0.80;0.80;;;21.00;99.90;;;;;;4957436;29;20456;-61
2023/07/04 05:33:40;;;;;;;0.83;0.83;;;21.10;99.90;;;;;;4956799;29;20412;-62
2023/07/04 05:36:12;;;;;;;2.47;1.00;;;21.20;99.90;;;;;;4956723;29;20432;-61
2023/07/04 05:38:38;;;;;;;2.10;2.00;;;21.20;99.90;;;;;;4957058;29;20909;-61
2023/07/04 05:41:12;;;;;;;1.10;1.00;;;21.40;99.90;;;;;;4957287;29;20402;-61
2023/07/04 05:43:39;;;;;;;1.10;1.00;;;21.70;99.90;;;;;;4956814;29;20411;-60
2023/07/04 05:46:06;;;;;;;0.97;0.83;;;22.10;99.90;;;;;;4956889;29;20454;-61
2023/07/04 05:48:33;;;;;;;1.60;1.50;;;22.40;99.90;;;;;;4956921;29;20515;-61
2023/07/04 05:51:00;;;;;;;1.20;1.10;;;22.60;99.90;;;;;;4956853;29;20401;-61
2023/07/04 05:53:28;;;;;;;1.30;1.20;;;22.70;99.90;;;;;;4956422;29;20919;-60
2023/07/04 05:56:24;;;;;;;0.83;0.83;;;22.80;99.90;;;;;;4956821;29;20436;-60
2023/07/04 05:58:52;;;;;;;0.90;0.90;;;22.80;99.90;;;;;;4956542;29;20451;-61
2023/07/04 06:01:53;;;;;;;1.10;1.00;;;22.90;99.90;;;;;;4956663;29;20488;-60
2023/07/04 06:04:18;;;;;;;1.40;1.30;;;23.00;99.90;;;;;;4956056;29;20414;-60
2023/07/04 06:06:51;;;;;;;0.97;0.77;;;23.10;99.90;;;;;;4956301;29;20425;-62
2023/07/04 06:09:17;;;;;;;0.80;0.80;;;23.10;99.10;;;;;;4956417;29;20181;-60
2023/07/04 06:11:45;;;;;;;1.13;1.00;;;23.10;98.70;;;;;;4956373;29;20424;-60
2023/07/04 06:14:20;;;;;;;1.00;0.90;;;23.20;98.60;;;;;;4956038;29;20408;-60
2023/07/04 06:16:46;;;;;;;0.90;0.90;;;23.30;98.60;;;;;;4956267;29;20424;-60
2023/07/04 06:19:12;;;;;;;0.73;0.73;;;23.50;98.20;;;;;;4956119;29;20458;-60
2023/07/04 06:21:37;;;;;;;1.90;0.90;;;23.70;97.90;;;;;;4938900;29;20205;-60
2023/07/04 06:24:03;;;;;;;0.97;0.97;;;23.80;97.40;;;;;;4955627;29;20177;-60
2023/07/04 06:26:32;;;;;;;2.47;1.33;;;24.00;97.00;;;;;;4956140;29;20169;-61
2023/07/04 06:28:58;;;;;;;2.00;1.37;;;24.10;97.10;;;;;;4956347;29;20255;-60
2023/07/04 06:31:25;;;;;;;1.20;1.10;;;24.20;97.30;;;;;;4955729;29;20508;-61
2023/07/04 06:33:51;;;;;;;0.90;0.90;;;24.30;96.00;;;;;;4955598;29;20412;-60
2023/07/04 06:36:17;;;;;;;0.87;0.87;;;24.50;95.70;;;;;;4955717;29;20443;-60
2023/07/04 06:38:43;;;;;;;1.20;1.20;;;24.60;95.20;;;;;;4955911;29;20215;-60
2023/07/04 06:41:14;;;;;;;1.10;0.87;;;24.80;94.20;;;;;;4955962;29;20776;-60
2023/07/04 06:43:45;;;;;;;1.47;1.40;;;24.90;93.80;;;;;;4958483;28;20412;-61
2023/07/04 06:46:15;;;;;;;1.30;1.20;;;24.80;93.80;;;;;;4956489;28;20452;-60
2023/07/04 06:48:41;;;;;;;1.60;1.50;;;24.80;94.00;;;;;;4955926;29;20461;-60
2023/07/04 06:51:12;;;;;;;1.07;1.07;;;24.90;94.10;;;;;;4955740;29;20819;-60
2023/07/04 06:53:38;;;;;;;1.57;1.47;;;24.80;93.10;;;;;;4955767;29;21088;-60
2023/07/04 06:56:11;;;;;;;1.23;1.13;;;24.80;93.20;;;;;;4955698;29;20442;-60
2023/07/04 06:58:42;;;;;;;1.50;1.23;;;24.90;91.70;;;;;;4961935;28;20457;-61
2023/07/04 07:01:10;;;;;;;2.70;1.20;;;25.00;91.80;;;;;;4958428;28;20913;-60
2023/07/04 07:03:36;;;;;;;1.47;1.37;;;25.10;91.30;;;;;;4974830;28;20462;-60
2023/07/04 07:06:04;;;;;;;1.53;1.40;;;25.20;91.00;;;;;;4975225;28;20439;-61
2023/07/04 07:08:30;;;;;;;1.17;1.07;;;25.20;90.00;;;;;;4975056;28;20444;-60
2023/07/04 07:11:04;;;;;;;1.10;1.10;;;25.20;90.00;;;;;;4975155;28;20818;-60
2023/07/04 07:13:30;;;;;;;1.20;1.20;;;25.20;89.00;;;;;;4975132;28;20431;-60
2023/07/04 07:16:09;;;;;;;2.47;1.70;;;25.20;87.10;;;;;;4978440;28;20437;-59
2023/07/04 07:18:36;;;;;;;1.70;1.60;;;25.30;87.70;;;;;;4962066;28;20471;-60
2023/07/04 07:21:03;;;;;;;1.20;1.10;;;25.30;88.70;;;;;;4976260;28;20432;-60
2023/07/04 07:23:31;;;;;;;1.93;1.47;;;25.30;87.70;;;;;;4974206;28;20535;-60
2023/07/04 07:25:58;;;;;;;1.47;1.37;;;25.20;87.00;;;;;;4974335;28;20428;-61
2023/07/04 07:28:25;;;;;;;3.50;1.60;;;25.20;88.00;;;;;;4974745;28;20396;-60
2023/07/04 07:31:04;;;;;;;1.50;1.40;;;25.10;87.20;;;;;;4963287;28;20477;-61
2023/07/04 07:33:34;;;;;;;2.27;1.27;;;25.10;87.10;;;;;;4954266;28;20418;-61
2023/07/04 07:36:12;;;;;;;2.10;1.90;;;25.10;87.30;;;;;;4955058;29;20982;-61
2023/07/04 07:38:37;;;;;;;2.60;2.10;;;25.00;87.40;;;;;;4955330;29;20508;-61
2023/07/04 07:41:04;;;;;;;1.40;1.40;;;25.00;88.00;;;;;;4955164;29;20915;-60
2023/07/04 07:43:31;;;;;;;1.90;1.27;;;25.00;88.30;;;;;;4955011;29;20547;-61
2023/07/04 07:45:56;;;;;;;1.37;1.27;;;24.90;88.60;;;;;;4968346;28;20576;-60
2023/07/04 07:48:22;;;;;;;2.30;1.60;;;24.80;88.70;;;;;;4957260;28;20527;-60
2023/07/04 07:50:47;;;;;;;1.53;1.43;;;24.80;90.20;;;;;;4955305;29;20180;-60
2023/07/04 07:53:14;;;;;;;4.40;1.57;;;24.90;89.70;;;;;;4955112;29;20699;-61
2023/07/04 07:55:40;;;;;;;2.83;1.70;;;25.10;89.30;;;;;;4954839;29;20206;-60
2023/07/04 07:58:06;;;;;;;2.00;1.37;;;25.20;88.40;;;;;;4955043;29;20500;-62
2023/07/04 08:00:32;;;;;;;1.27;1.17;;;25.30;87.50;;;;;;4967474;28;20429;-61
2023/07/04 08:02:58;;;;;;;1.63;1.30;;;25.30;88.10;;;;;;4974444;28;20966;-61
2023/07/04 08:05:24;;;;;;;1.43;1.33;;;25.50;88.00;;;;;;4956708;28;20202;-61
2023/07/04 08:07:50;;;;;;;1.43;1.33;;;25.50;88.60;;;;;;4973989;28;20480;-61
2023/07/04 08:10:16;;;;;;;4.20;1.40;;;25.60;86.90;;;;;;4974387;28;20178;-62
2023/07/04 08:12:41;;;;;;;1.47;1.37;;;25.80;85.50;;;;;;4974316;28;20191;-61
2023/07/04 08:15:07;;;;;;;2.50;1.67;;;26.00;85.00;;;;;;4962170;28;20435;-61
2023/07/04 08:17:33;;;;;;;1.23;1.13;;;26.40;84.40;;;;;;4954789;28;20551;-62
2023/07/04 08:19:58;;;;;;;4.10;3.57;;;26.60;82.30;;;;;;4937468;29;20177;-60
2023/07/04 08:22:24;;;;;;;1.40;1.30;;;26.80;81.20;;;;;;4954790;29;20169;-62
2023/07/04 08:24:50;;;;;;;2.50;1.90;;;27.00;80.70;;;;;;4954242;29;20269;-59
2023/07/04 08:27:15;;;;;;;2.20;2.00;;;27.10;80.60;;;;;;4954650;29;20535;-59
2023/07/04 08:29:41;;;;;;;2.03;1.83;;;27.30;77.60;;;;;;4964688;28;20188;-61
2023/07/04 08:32:07;;;;;;;2.40;2.20;;;27.40;78.40;;;;;;4974290;28;20188;-61
2023/07/04 08:34:32;;;;;;;2.60;1.63;;;27.40;78.20;;;;;;4973516;28;20721;-61
2023/07/04 08:36:58;;;;;;;3.37;2.10;;;27.50;76.60;;;;;;4974104;28;20263;-60
2023/07/04 08:39:24;;;;;;;1.40;1.30;;;27.40;76.00;;;;;;4974044;28;20203;-60
2023/07/04 08:41:59;;;;;;;2.03;1.83;;;27.40;77.00;;;;;;4973980;28;20207;-60
2023/07/04 08:44:57;;;;;;;2.20;1.90;;;27.80;78.30;;;;;;4964746;28;20208;-60
2023/07/04 08:47:28;;;;;;;1.87;1.60;;;28.30;77.10;;;;;;4955105;28;20402;-61
2023/07/04 08:49:55;;;;;;;2.03;1.90;;;29.00;76.60;;;;;;4957969;29;20419;-60
2023/07/04 08:52:46;;;;;;;1.67;1.57;;;29.30;73.80;;;;;;4957888;29;20393;-60
2023/07/04 08:55:14;;;;;;;1.90;1.70;;;29.70;73.60;;;;;;4972139;28;20447;-59
2023/07/04 08:57:54;;;;;;;1.80;1.70;;;30.10;72.30;;;;;;4957885;29;20395;-60
2023/07/04 09:00:35;;;;;;;2.10;1.90;;;30.80;70.90;;;;;;4976793;28;20834;-60
2023/07/04 09:03:25;;;;;;;3.07;2.17;;;31.70;67.90;;;;;;4977234;28;20777;-60
2023/07/04 09:06:06;;;;;;;2.57;2.37;;;33.00;62.90;;;;;;4977092;28;20485;-60
2023/07/04 09:08:45;;;;;;;2.90;2.10;;;34.00;61.20;;;;;;4977083;28;20470;-61
2023/07/04 09:11:11;;;;;;;2.83;2.63;;;34.80;59.00;;;;;;4976858;28;20442;-60
2023/07/04 09:13:45;;;;;;;2.97;2.77;;;35.70;58.60;;;;;;4968857;28;20531;-60
2023/07/04 09:16:33;;;;;;;2.27;2.10;;;36.60;57.40;;;;;;4957707;29;20440;-60
2023/07/04 09:19:03;;;;;;;3.30;3.00;;;37.40;55.20;;;;;;4957048;28;20475;-61
2023/07/04 09:21:31;;;;;;;2.70;2.50;;;37.00;52.60;;;;;;4957738;29;20460;-60
2023/07/04 09:23:59;;;;;;;3.43;2.87;;;36.00;53.60;;;;;;4939634;29;20428;-60
2023/07/04 09:26:38;;;;;;;2.70;2.50;;;34.90;55.10;;;;;;4958964;28;20419;-60
2023/07/04 09:29:06;;;;;;;3.03;2.63;;;34.30;55.70;;;;;;4976362;28;20407;-60
2023/07/04 09:31:36;;;;;;;3.20;2.50;;;34.20;57.00;;;;;;4976470;28;20424;-61
2023/07/04 09:34:17;;;;;;;3.17;2.90;;;34.50;55.70;;;;;;4976335;28;20519;-61
2023/07/04 09:36:44;;;;;;;2.60;2.40;;;34.40;55.90;;;;;;4976275;28;20462;-61
2023/07/04 09:39:09;;;;;;;2.40;2.20;;;34.10;56.10;;;;;;4974711;28;21021;-61
2023/07/04 09:41:39;;;;;;;2.57;2.37;;;34.10;56.60;;;;;;4957240;29;20584;-61
2023/07/04 09:44:18;;;;;;;2.83;2.43;;;34.00;56.20;;;;;;4957390;29;20177;-61
2023/07/04 09:46:53;;;;;;;5.20;2.60;;;33.80;55.90;;;;;;4957503;29;20391;-60
2023/07/04 09:49:38;;;;;;;2.57;2.37;;;33.40;57.50;;;;;;4957566;29;20411;-61
2023/07/04 09:52:11;;;;;;;3.83;2.80;;;33.20;57.50;;;;;;4959139;29;20439;-61
2023/07/04 09:54:38;;;;;;;2.90;2.60;;;33.40;56.90;;;;;;4946817;28;20443;-61
2023/07/04 09:57:21;;;;;;;2.17;2.00;;;33.50;56.00;;;;;;4975725;28;20420;-60
2023/07/04 09:59:48;;;;;;;2.53;2.33;;;33.90;55.80;;;;;;4980662;28;20463;-61
2023/07/04 10:02:18;;;;;;;2.73;2.30;;;34.10;56.10;;;;;;4963892;28;20422;-60
2023/07/04 10:04:50;;;;;;;2.60;2.40;;;33.80;55.90;;;;;;4961705;28;20435;-61
2023/07/04 10:07:20;;;;;;;2.20;2.10;;;33.00;57.80;;;;;;4978119;28;20439;-60
2023/07/04 10:10:06;;;;;;;2.60;2.13;;;32.80;58.40;;;;;;4965879;28;20531;-60
2023/07/04 10:12:41;;;;;;;2.93;2.53;;;32.50;57.60;;;;;;4956949;29;20416;-61
2023/07/04 10:15:07;;;;;;;3.00;2.77;;;31.80;58.20;;;;;;4956113;29;20447;-59
2023/07/04 10:17:41;;;;;;;2.73;2.53;;;31.00;59.00;;;;;;4957410;29;20420;-59
2023/07/04 10:20:13;;;;;;;2.77;2.47;;;30.30;60.50;;;;;;4957169;29;20406;-62
2023/07/04 10:22:41;;;;;;;2.10;2.00;;;29.50;62.50;;;;;;4959687;28;20410;-60
2023/07/04 10:25:18;;;;;;;2.97;2.17;;;28.80;64.10;;;;;;4975356;28;20433;-60
2023/07/04 10:27:56;;;;;;;2.30;2.10;;;28.40;65.90;;;;;;4975483;28;20502;-60
2023/07/04 10:30:27;;;;;;;2.90;2.33;;;28.20;66.60;;;;;;4975648;28;20500;-60
2023/07/04 10:33:16;;;;;;;2.50;2.30;;;28.00;67.60;;;;;;4975614;28;20737;-61
2023/07/04 10:35:45;;;;;;;3.30;2.83;;;28.30;67.40;;;;;;4975302;28;20410;-60
2023/07/04 10:38:28;;;;;;;3.33;2.40;;;28.80;67.00;;;;;;4965427;28;20467;-61
2023/07/04 10:40:55;;;;;;;3.47;2.20;;;28.80;64.70;;;;;;4958702;28;20804;-61
2023/07/04 10:43:34;;;;;;;2.50;2.30;;;28.60;65.70;;;;;;4974900;28;20395;-62
2023/07/04 10:46:04;;;;;;;2.27;2.07;;;29.00;65.90;;;;;;4973600;28;20829;-62
2023/07/04 10:48:33;;;;;;;4.50;3.50;;;29.40;65.20;;;;;;4975330;28;20504;-62
2023/07/04 10:51:43;;;;;;;2.43;2.23;;;30.20;63.90;;;;;;4975068;28;20500;-62
2023/07/04 10:54:12;;;;;;;3.20;2.30;;;31.20;62.30;;;;;;4905685;28;20522;-60
2023/07/04 10:56:40;;;;;;;3.23;2.73;;;31.90;59.50;;;;;;4968236;28;20421;-61
2023/07/04 10:59:30;;;;;;;3.80;2.47;;;31.50;58.70;;;;;;4972483;28;20456;-61
2023/07/04 11:02:12;;;;;;;2.13;2.03;;;31.20;59.60;;;;;;4957015;28;20437;-61
2023/07/04 11:04:39;;;;;;;3.33;2.80;;;30.40;59.80;;;;;;4950153;28;20431;-61
2023/07/04 11:07:18;;;;;;;2.60;2.40;;;29.80;61.40;;;;;;4974651;28;20472;-62
2023/07/04 11:09:45;;;;;;;3.03;2.73;;;29.10;62.60;;;;;;4974813;28;20431;-62
2023/07/04 11:12:17;;;;;;;4.17;2.60;;;28.70;64.60;;;;;;4974870;28;20462;-61
2023/07/04 11:14:45;;;;;;;2.97;2.67;;;28.50;64.40;;;;;;4956906;28;20417;-61
2023/07/04 11:17:15;;;;;;;2.50;2.30;;;28.30;64.40;;;;;;4971967;28;20398;-61
2023/07/04 11:20:06;;;;;;;2.83;2.63;;;28.20;64.90;;;;;;4955224;29;20492;-61
2023/07/04 11:22:59;;;;;;;2.87;2.53;;;28.20;64.70;;;;;;4955477;29;20408;-61
2023/07/04 11:25:38;;;;;;;2.63;2.10;;;28.00;66.00;;;;;;4952676;28;20455;-62
2023/07/04 11:28:18;;;;;;;2.30;2.07;;;27.80;67.20;;;;;;4955260;29;20415;-61
2023/07/04 11:30:47;;;;;;;2.77;2.33;;;27.70;67.60;;;;;;4963204;28;20401;-61
2023/07/04 11:33:39;;;;;;;2.80;2.50;;;27.30;66.70;;;;;;4974412;28;20394;-61
2023/07/04 11:36:26;;;;;;;2.43;2.17;;;27.00;67.90;;;;;;4955186;28;20432;-62
2023/07/04 11:38:57;;;;;;;2.67;2.47;;;26.80;68.50;;;;;;4954379;29;20579;-62
2023/07/04 11:41:30;;;;;;;2.60;2.40;;;26.90;70.10;;;;;;4955042;28;20466;-62
2023/07/04 11:44:00;;;;;;;2.70;2.50;;;26.80;69.50;;;;;;4959815;28;20416;-62
2023/07/04 11:46:28;;;;;;;2.33;2.13;;;26.80;69.50;;;;;;4974529;28;20445;-62
2023/07/04 11:48:56;;;;;;;1.90;1.70;;;26.80;70.00;;;;;;4974387;28;20765;-62
2023/07/04 11:51:24;;;;;;;2.53;2.30;;;26.70;70.10;;;;;;4974840;28;20950;-62
2023/07/04 11:54:01;;;;;;;2.77;2.20;;;26.80;69.60;;;;;;4973804;28;20451;-63
2023/07/04 11:56:29;;;;;;;2.00;1.90;;;26.90;70.70;;;;;;4968523;28;20426;-62
2023/07/04 11:59:13;;;;;;;2.33;2.17;;;26.80;69.80;;;;;;4957433;28;20469;-62
2023/07/04 12:01:48;;;;;;;2.10;1.90;;;26.60;68.40;;;;;;4954799;28;20389;-62
2023/07/04 12:04:14;;;;;;;2.93;2.57;;;26.50;69.30;;;;;;4957027;28;20760;-62
2023/07/04 12:07:00;;;;;;;3.53;3.10;;;26.40;70.70;;;;;;4954789;29;20428;-62
2023/07/04 12:09:32;;;;;;;2.10;1.90;;;26.30;70.80;;;;;;4954963;29;20179;-62
2023/07/04 12:11:58;;;;;;;2.30;2.10;;;26.30;71.00;;;;;;4955137;29;20401;-62
2023/07/04 12:14:24;;;;;;;3.03;2.53;;;26.30;69.40;;;;;;4954616;28;20441;-62
2023/07/04 12:16:50;;;;;;;3.20;2.40;;;26.30;70.40;;;;;;4954823;29;20423;-62
2023/07/04 12:19:18;;;;;;;2.30;2.10;;;26.30;69.30;;;;;;4955928;28;20909;-63
2023/07/04 12:21:48;;;;;;;2.67;2.47;;;26.30;68.50;;;;;;4958543;29;20186;-62
2023/07/04 12:24:20;;;;;;;2.77;2.57;;;26.40;68.40;;;;;;4957899;29;20741;-62
2023/07/04 12:26:58;;;;;;;3.70;2.13;;;26.40;68.60;;;;;;4958418;29;20387;-62
2023/07/04 12:29:25;;;;;;;2.20;2.00;;;26.40;69.30;;;;;;4973494;28;20431;-62
2023/07/04 12:32:08;;;;;;;3.10;2.30;;;26.60;71.00;;;;;;4977507;28;20411;-62
2023/07/04 12:34:35;;;;;;;2.83;2.60;;;26.80;70.00;;;;;;4977188;28;20595;-61
2023/07/04 12:37:05;;;;;;;2.87;2.00;;;26.90;69.50;;;;;;4977513;28;20422;-63
2023/07/04 12:39:41;;;;;;;2.57;2.37;;;27.20;67.60;;;;;;4977679;28;20466;-64
2023/07/04 12:42:10;;;;;;;2.47;2.23;;;27.30;66.00;;;;;;4977527;28;20422;-62
2023/07/04 12:44:36;;;;;;;4.27;2.07;;;27.20;66.10;;;;;;4958094;28;20453;-63
2023/07/04 12:47:09;;;;;;;3.13;2.60;;;27.30;66.80;;;;;;4958187;29;20742;-63
2023/07/04 12:49:35;;;;;;;3.20;2.77;;;27.30;65.40;;;;;;4958251;29;20412;-63
2023/07/04 12:52:01;;;;;;;3.87;1.90;;;27.40;66.60;;;;;;4957194;29;20390;-64
2023/07/04 12:54:27;;;;;;;3.70;2.50;;;27.40;66.00;;;;;;4957496;29;20931;-62
2023/07/04 12:56:54;;;;;;;2.90;2.37;;;27.40;65.30;;;;;;4970794;28;20268;-62
2023/07/04 12:59:34;;;;;;;2.70;2.27;;;27.30;66.40;;;;;;4977349;28;20459;-63
2023/07/04 13:02:14;;;;;;;2.93;2.63;;;27.30;64.60;;;;;;4990426;28;20430;-64
2023/07/04 13:04:40;;;;;;;2.60;2.40;;;27.20;66.20;;;;;;4978111;28;20438;-64
2023/07/04 13:07:05;;;;;;;2.77;2.57;;;27.20;67.00;;;;;;4996200;28;20406;-63
2023/07/04 13:09:31;;;;;;;3.33;3.03;;;27.10;65.10;;;;;;4996249;28;20234;-63
2023/07/04 13:11:58;;;;;;;1.67;1.57;;;27.10;64.90;;;;;;4979663;28;20431;-63
2023/07/04 13:14:29;;;;;;;3.00;2.67;;;27.00;65.10;;;;;;4976351;28;20276;-63
2023/07/04 13:17:12;;;;;;;1.70;1.60;;;27.00;64.50;;;;;;4976872;28;20502;-64
2023/07/04 13:19:42;;;;;;;2.77;1.87;;;27.10;64.90;;;;;;4976750;28;20463;-63
2023/07/04 13:22:16;;;;;;;3.20;2.43;;;27.00;64.20;;;;;;4976976;28;20407;-62
2023/07/04 13:24:42;;;;;;;2.60;2.30;;;27.00;64.90;;;;;;4976263;28;20421;-63
2023/07/04 13:27:23;;;;;;;2.47;2.27;;;27.10;65.40;;;;;;4940428;29;20431;-63
2023/07/04 13:29:58;;;;;;;2.27;2.13;;;27.30;63.70;;;;;;4940142;28;20423;-62
2023/07/04 13:32:34;;;;;;;1.90;1.80;;;27.40;65.10;;;;;;4965826;28;20993;-63
2023/07/04 13:35:23;;;;;;;1.73;1.53;;;27.50;65.30;;;;;;4959678;28;20524;-63
2023/07/04 13:37:49;;;;;;;3.53;2.20;;;27.70;63.20;;;;;;4976513;28;20385;-64
2023/07/04 13:40:15;;;;;;;3.40;2.83;;;27.70;61.20;;;;;;4976634;28;20813;-63
2023/07/04 13:42:40;;;;;;;1.70;1.60;;;27.80;61.80;;;;;;4976667;28;20441;-63
2023/07/04 13:45:08;;;;;;;1.97;1.87;;;27.90;61.40;;;;;;4975943;28;20270;-63
2023/07/04 13:47:33;;;;;;;2.23;2.13;;;28.00;61.80;;;;;;4971457;28;20345;-63
2023/07/04 13:50:00;;;;;;;2.63;2.10;;;28.10;60.00;;;;;;4972837;28;20412;-63
2023/07/04 13:52:26;;;;;;;2.27;2.07;;;28.00;59.40;;;;;;4947236;29;20195;-63
2023/07/04 13:54:51;;;;;;;1.87;1.63;;;27.90;60.30;;;;;;4956542;29;20410;-63
2023/07/04 13:57:17;;;;;;;1.80;1.63;;;27.90;61.40;;;;;;4940022;28;20182;-63
2023/07/04 13:59:43;;;;;;;2.00;1.90;;;27.90;61.60;;;;;;4975239;28;20295;-63
2023/07/04 14:02:08;;;;;;;2.10;2.00;;;28.00;61.70;;;;;;4975156;28;20226;-63
2023/07/04 14:04:34;;;;;;;2.10;1.63;;;28.00;60.30;;;;;;4975756;28;20199;-63
2023/07/04 14:06:59;;;;;;;2.20;2.00;;;27.80;60.50;;;;;;4975881;28;20648;-63
2023/07/04 14:09:25;;;;;;;2.40;2.00;;;27.70;60.80;;;;;;4975695;28;20195;-63
2023/07/04 14:11:57;;;;;;;2.57;2.00;;;27.60;61.60;;;;;;4976182;28;20182;-64
2023/07/04 14:14:26;;;;;;;2.03;1.83;;;27.60;60.00;;;;;;4962867;28;20235;-63
2023/07/04 14:16:52;;;;;;;5.20;2.50;;;27.50;60.80;;;;;;4967443;28;20409;-63
2023/07/04 14:19:17;;;;;;;1.90;1.80;;;27.40;60.50;;;;;;4975521;28;20445;-64
2023/07/04 14:21:43;;;;;;;1.57;1.47;;;27.30;62.70;;;;;;4975635;28;20192;-64
2023/07/04 14:24:09;;;;;;;2.80;2.53;;;27.30;62.30;;;;;;4974589;28;20185;-63
2023/07/04 14:26:34;;;;;;;2.13;1.63;;;27.40;62.50;;;;;;4956469;29;20177;-62
2023/07/04 14:29:00;;;;;;;2.20;2.00;;;27.40;62.00;;;;;;4956591;29;20186;-63
2023/07/04 14:31:25;;;;;;;2.83;1.73;;;27.50;62.50;;;;;;4966228;28;20188;-64
2023/07/04 14:33:51;;;;;;;5.10;2.53;;;27.40;60.50;;;;;;4974514;28;20177;-63
2023/07/04 14:36:17;;;;;;;1.83;1.73;;;27.40;60.30;;;;;;4966279;28;20257;-64
2023/07/04 14:38:43;;;;;;;2.60;2.20;;;27.40;59.80;;;;;;4975455;28;20202;-63
2023/07/04 14:41:09;;;;;;;1.83;1.73;;;27.40;61.40;;;;;;4975009;28;20513;-63
2023/07/04 14:43:35;;;;;;;1.80;1.63;;;27.30;62.70;;;;;;4974798;28;20179;-63
2023/07/04 14:46:03;;;;;;;1.97;1.77;;;27.40;62.10;;;;;;4950609;29;20230;-62
2023/07/04 14:48:29;;;;;;;1.67;1.57;;;27.40;62.50;;;;;;4973481;28;20711;-62
2023/07/04 14:51:04;;;;;;;4.30;2.00;;;27.40;61.60;;;;;;4956044;28;20425;-63
2023/07/04 14:53:29;;;;;;;1.43;1.27;;;27.30;62.10;;;;;;4974556;28;21265;-63
2023/07/04 14:56:00;;;;;;;1.83;1.63;;;27.30;61.90;;;;;;4957753;28;20453;-63
2023/07/04 14:58:25;;;;;;;3.10;2.60;;;27.30;64.00;;;;;;4955738;29;20468;-64
2023/07/04 15:00:51;;;;;;;2.00;1.90;;;27.30;62.60;;;;;;4955887;29;20424;-64
2023/07/04 15:03:17;;;;;;;2.93;1.70;;;27.40;62.80;;;;;;4955240;28;20598;-63
2023/07/04 15:05:42;;;;;;;3.13;1.40;;;27.40;62.50;;;;;;4952026;28;20200;-63
2023/07/04 15:08:08;;;;;;;2.20;1.67;;;27.30;61.50;;;;;;4975031;28;20259;-63
2023/07/04 15:10:34;;;;;;;2.03;1.90;;;27.20;62.00;;;;;;4957406;28;20182;-63
2023/07/04 15:13:00;;;;;;;1.53;1.43;;;27.10;62.90;;;;;;4955227;29;20323;-63
2023/07/04 15:15:25;;;;;;;1.83;1.73;;;27.00;62.80;;;;;;4959819;28;20538;-63
2023/07/04 15:17:51;;;;;;;2.13;1.90;;;26.90;62.70;;;;;;4966935;28;20168;-62
2023/07/04 15:20:18;;;;;;;2.13;1.93;;;26.80;62.70;;;;;;4974538;28;20176;-63
2023/07/04 15:22:44;;;;;;;1.83;1.73;;;26.70;62.70;;;;;;4974762;28;20176;-63
2023/07/04 15:25:11;;;;;;;2.40;1.57;;;26.60;62.30;;;;;;4953138;28;20456;-63
2023/07/04 15:27:37;;;;;;;2.30;2.10;;;26.40;62.50;;;;;;4937789;29;20424;-64
2023/07/04 15:30:03;;;;;;;2.50;2.30;;;26.40;64.20;;;;;;4955452;29;20430;-64
2023/07/04 15:32:29;;;;;;;1.97;1.87;;;26.40;63.90;;;;;;4955091;28;20405;-64
2023/07/04 15:34:55;;;;;;;2.33;1.77;;;26.50;65.40;;;;;;4955325;28;20503;-63
2023/07/04 15:37:23;;;;;;;2.00;1.80;;;26.60;63.10;;;;;;4962273;28;20185;-64
2023/07/04 15:39:50;;;;;;;2.40;1.83;;;26.60;62.90;;;;;;4955252;29;20209;-63
2023/07/04 15:42:16;;;;;;;1.90;1.70;;;26.70;63.30;;;;;;4955095;29;20906;-64
2023/07/04 15:44:42;;;;;;;2.20;2.03;;;26.80;62.60;;;;;;4965310;28;20535;-64
2023/07/04 15:47:08;;;;;;;1.40;1.30;;;26.80;62.90;;;;;;4974261;28;20429;-64
2023/07/04 15:49:33;;;;;;;3.30;1.67;;;26.70;62.30;;;;;;4974326;28;20187;-64
2023/07/04 15:51:59;;;;;;;3.07;1.93;;;26.70;62.90;;;;;;4973725;28;20252;-65
2023/07/04 15:54:26;;;;;;;1.80;1.70;;;26.70;63.50;;;;;;4966817;28;20251;-63
2023/07/04 15:56:52;;;;;;;2.00;1.90;;;26.70;64.20;;;;;;4978194;28;20407;-63
2023/07/04 15:59:19;;;;;;;1.60;1.50;;;26.70;64.30;;;;;;4977863;28;20491;-61
2023/07/04 16:01:45;;;;;;;1.77;1.57;;;26.70;64.50;;;;;;4978124;28;20408;-61
2023/07/04 16:04:11;;;;;;;2.07;1.80;;;26.70;65.00;;;;;;4969649;28;20449;-60
2023/07/04 16:06:37;;;;;;;2.37;2.17;;;26.70;63.10;;;;;;4973921;28;20447;-60
2023/07/04 16:09:04;;;;;;;1.73;1.63;;;26.80;64.10;;;;;;4977265;28;20424;-61
2023/07/04 16:11:30;;;;;;;1.40;1.27;;;26.70;64.30;;;;;;4977730;28;20643;-61
2023/07/04 16:13:55;;;;;;;1.67;1.57;;;26.70;64.20;;;;;;4977577;28;20412;-61
2023/07/04 16:16:22;;;;;;;1.70;1.60;;;26.70;63.40;;;;;;4969465;28;20957;-69
2023/07/04 16:18:47;;;;;;;2.00;1.60;;;26.70;64.50;;;;;;4977763;28;20200;-63
2023/07/04 16:21:13;;;;;;;2.03;1.83;;;26.60;62.90;;;;;;4960341;28;20437;-65
2023/07/04 16:23:40;;;;;;;1.80;1.63;;;26.50;62.70;;;;;;4959278;28;20191;-64
2023/07/04 16:26:06;;;;;;;1.40;1.30;;;26.40;62.90;;;;;;4966881;28;20287;-63
2023/07/04 16:28:31;;;;;;;2.77;1.93;;;26.30;62.90;;;;;;4960794;28;20827;-63
2023/07/04 16:31:01;;;;;;;1.43;1.33;;;26.20;64.00;;;;;;4967823;28;20193;-62
2023/07/04 16:33:29;;;;;;;2.00;1.20;;;26.10;64.20;;;;;;4967735;28;20199;-63
2023/07/04 16:35:55;;;;;;;3.13;1.57;;;26.10;64.90;;;;;;4967863;28;20447;-63
2023/07/04 16:38:21;;;;;;;1.27;1.20;;;26.00;64.80;;;;;;4949557;28;20590;-63
2023/07/04 16:40:47;;;;;;;1.80;1.70;;;26.00;64.80;;;;;;4967362;28;20388;-64
2023/07/04 16:43:12;;;;;;;2.03;1.93;;;25.90;64.70;;;;;;4966221;28;20540;-65
2023/07/04 16:45:38;;;;;;;2.03;1.90;;;25.80;65.10;;;;;;4949446;28;20200;-63
2023/07/04 16:48:04;;;;;;;3.80;3.47;;;25.80;66.10;;;;;;4967290;28;20270;-63
2023/07/04 16:50:31;;;;;;;2.50;2.00;;;25.80;66.90;;;;;;4950469;28;20654;-63
2023/07/04 16:52:57;;;;;;;2.10;1.90;;;25.70;67.00;;;;;;4965588;28;20444;-62
2023/07/04 16:55:24;;;;;;;2.40;1.60;;;25.70;66.90;;;;;;4966343;28;20443;-63
2023/07/04 16:57:49;;;;;;;2.40;2.20;;;25.70;66.90;;;;;;4967442;28;20920;-63
2023/07/04 17:00:15;;;;;;;1.80;1.37;;;25.70;67.00;;;;;;4966603;28;20416;-65
2023/07/04 17:02:41;;;;;;;1.60;1.50;;;25.70;66.90;;;;;;4963551;28;20653;-63
2023/07/04 17:05:07;;;;;;;2.23;2.13;;;25.70;67.40;;;;;;4972523;28;20219;-63
2023/07/04 17:07:33;;;;;;;2.03;1.80;;;25.70;67.20;;;;;;4976544;28;20435;-63